Time;durP1;ratioP1;P1;durP2;ratioP2;P2;SDS_P1;SDS_P2;PMS_P1;PMS_P2;Temp;Humidity;BMP_temperature;BMP_pressure;BME280_temperature;BME280_humidity;BME280_pressure;Samples;Min_cycle;Max_cycle;Signal;HPM_P1;HPM_P2
2024/01/17 00:01:19;;;;;;;14.02;6.90;;;;;;;1.52;68.94;100240.16;7395257;19;20116;-61
2024/01/17 00:03:49;;;;;;;17.15;7.10;;;;;;;1.64;68.52;100238.75;7395170;19;20085;-61
2024/01/17 00:06:20;;;;;;;14.70;6.60;;;;;;;1.57;68.26;100227.78;7392559;19;20530;-62
2024/01/17 00:08:50;;;;;;;16.08;7.03;;;;;;;1.40;68.85;100230.28;7395362;19;20372;-61
2024/01/17 00:11:20;;;;;;;14.73;6.82;;;;;;;1.38;68.75;100219.09;7395056;19;20507;-62
2024/01/17 00:13:51;;;;;;;16.15;7.43;;;;;;;1.48;68.75;100222.09;7395379;19;20394;-62
2024/01/17 00:16:22;;;;;;;13.70;7.05;;;;;;;1.39;69.07;100224.22;7393383;19;20040;-62
2024/01/17 00:18:54;;;;;;;15.15;6.75;;;;;;;1.63;68.40;100214.44;7394927;19;20514;-61
2024/01/17 00:21:25;;;;;;;14.80;6.63;;;;;;;1.56;68.26;100215.63;7394354;19;20019;-61
2024/01/17 00:23:56;;;;;;;14.52;6.78;;;;;;;1.48;68.01;100201.25;7393469;19;20023;-61
2024/01/17 00:26:28;;;;;;;18.08;7.43;;;;;;;1.25;68.57;100194.44;7392367;19;20428;-61
2024/01/17 00:28:59;;;;;;;15.35;7.18;;;;;;;1.27;68.50;100193.47;7394198;19;20014;-61
2024/01/17 00:31:36;;;;;;;17.10;6.40;;;;;;;1.06;69.30;100187.44;7394611;19;20043;-62
2024/01/17 00:34:07;;;;;;;13.60;7.03;;;;;;;1.12;69.24;100188.94;7394326;19;20374;-62
2024/01/17 00:36:38;;;;;;;14.98;7.05;;;;;;;1.14;69.03;100198.34;7392166;19;20627;-62
2024/01/17 00:39:08;;;;;;;14.18;6.82;;;;;;;1.24;68.70;100187.53;7393872;19;20046;-62
2024/01/17 00:41:40;;;;;;;15.18;6.95;;;;;;;1.23;68.69;100176.28;7394353;19;20387;-62
2024/01/17 00:44:14;;;;;;;15.50;7.00;;;;;;;1.33;68.14;100179.28;7391582;19;20022;-62
2024/01/17 00:46:45;;;;;;;13.68;7.15;;;;;;;1.24;68.58;100171.91;7392098;19;20351;-62
2024/01/17 00:49:15;;;;;;;14.00;7.03;;;;;;;1.22;68.52;100158.91;7392405;19;20022;-62
2024/01/17 00:51:46;;;;;;;15.60;6.97;;;;;;;1.28;67.93;100166.47;7392481;19;20042;-62
2024/01/17 00:54:16;;;;;;;14.48;6.93;;;;;;;1.13;68.28;100165.38;7393219;19;20039;-61
2024/01/17 00:56:46;;;;;;;14.32;6.75;;;;;;;1.17;68.26;100166.09;7391870;19;20019;-62
2024/01/17 00:59:17;;;;;;;15.88;6.90;;;;;;;1.16;68.56;100170.47;7393242;19;20468;-62
2024/01/17 01:01:47;;;;;;;14.32;7.13;;;;;;;1.15;68.22;100162.72;7391830;19;20018;-62
2024/01/17 01:04:17;;;;;;;13.30;6.75;;;;;;;0.94;69.01;100154.06;7393174;19;20094;-62
2024/01/17 01:06:47;;;;;;;14.50;7.45;;;;;;;1.04;68.17;100151.94;7390962;19;20081;-62
2024/01/17 01:09:18;;;;;;;13.40;6.88;;;;;;;0.85;68.87;100138.84;7392525;19;20050;-62
2024/01/17 01:11:48;;;;;;;14.63;7.05;;;;;;;0.94;69.15;100147.09;7393179;19;20020;-62
2024/01/17 01:14:19;;;;;;;13.68;7.00;;;;;;;0.94;68.66;100144.50;7393429;19;20026;-62
2024/01/17 01:16:50;;;;;;;14.07;6.75;;;;;;;1.01;68.86;100136.41;7390842;19;20348;-62
2024/01/17 01:19:21;;;;;;;15.20;7.65;;;;;;;1.01;68.61;100134.66;7393180;19;20433;-62
2024/01/17 01:21:51;;;;;;;14.55;7.30;;;;;;;1.02;68.41;100141.56;7392680;19;20486;-61
2024/01/17 01:24:22;;;;;;;14.65;6.85;;;;;;;1.00;68.67;100146.00;7392152;19;20101;-62
2024/01/17 01:26:52;;;;;;;15.07;7.32;;;;;;;1.04;68.71;100131.91;7388454;19;20356;-61
2024/01/17 01:29:22;;;;;;;12.15;6.72;;;;;;;0.93;68.76;100135.00;7392768;19;20509;-61
2024/01/17 01:31:53;;;;;;;13.88;7.05;;;;;;;1.07;68.42;100125.69;7392483;19;20010;-60
2024/01/17 01:34:23;;;;;;;14.60;7.00;;;;;;;0.86;68.57;100117.94;7390405;19;20035;-61
2024/01/17 01:36:53;;;;;;;12.77;6.40;;;;;;;0.93;68.70;100128.94;7390350;19;20025;-61
2024/01/17 01:39:24;;;;;;;15.07;6.93;;;;;;;0.95;68.71;100119.28;7391847;19;20021;-61
2024/01/17 01:41:55;;;;;;;14.77;7.15;;;;;;;0.94;68.60;100115.81;7391740;19;20022;-61
2024/01/17 01:44:25;;;;;;;14.25;7.30;;;;;;;1.02;68.33;100130.28;7391550;19;20043;-61
2024/01/17 01:46:57;;;;;;;14.30;6.85;;;;;;;0.99;68.27;100120.81;7389930;19;20025;-61
2024/01/17 01:49:31;;;;;;;16.05;7.18;;;;;;;0.86;69.01;100127.50;7390350;19;20047;-60
2024/01/17 01:52:02;;;;;;;15.68;7.10;;;;;;;0.97;68.67;100118.31;7392180;19;20031;-61
2024/01/17 01:54:38;;;;;;;14.13;7.05;;;;;;;1.00;68.35;100111.28;7391881;19;20023;-61
2024/01/17 01:57:09;;;;;;;14.95;7.53;;;;;;;0.92;68.54;100103.78;7395366;19;20026;-62
2024/01/17 01:59:40;;;;;;;12.98;7.03;;;;;;;1.00;68.39;100104.28;7399322;19;20015;-61
2024/01/17 02:02:11;;;;;;;15.52;7.70;;;;;;;0.85;68.54;100102.38;7399320;19;20015;-62
2024/01/17 02:04:42;;;;;;;15.70;7.93;;;;;;;0.83;68.93;100099.81;7399560;19;20324;-62
2024/01/17 02:07:14;;;;;;;15.70;8.23;;;;;;;0.88;68.79;100092.66;7395422;19;20011;-64
2024/01/17 02:09:49;;;;;;;13.98;7.70;;;;;;;0.94;68.29;100091.53;7398790;19;20550;-64
2024/01/17 02:12:21;;;;;;;14.32;7.60;;;;;;;1.02;68.17;100089.41;7399083;19;20023;-64
2024/01/17 02:14:51;;;;;;;14.50;7.07;;;;;;;1.05;68.36;100076.25;7398542;19;20019;-64
2024/01/17 02:17:22;;;;;;;15.43;7.90;;;;;;;1.09;68.58;100074.34;7395878;19;20053;-64
2024/01/17 02:19:52;;;;;;;16.23;7.35;;;;;;;1.01;68.38;100064.28;7398656;19;20042;-64
2024/01/17 02:22:23;;;;;;;15.40;7.57;;;;;;;1.16;68.07;100060.13;7398843;19;20015;-64
2024/01/17 02:24:54;;;;;;;16.08;7.95;;;;;;;1.04;68.40;100056.31;7399130;19;20019;-63
2024/01/17 02:27:24;;;;;;;18.70;7.85;;;;;;;1.00;68.27;100051.31;7395001;19;20019;-62
2024/01/17 02:29:54;;;;;;;14.05;7.50;;;;;;;0.98;68.92;100043.53;7398706;19;20018;-63
2024/01/17 02:32:25;;;;;;;15.90;7.70;;;;;;;1.09;68.61;100040.47;7398679;19;20030;-61
2024/01/17 02:34:56;;;;;;;16.65;7.85;;;;;;;0.92;68.64;100047.28;7398948;19;20026;-62
2024/01/17 02:37:29;;;;;;;15.43;7.80;;;;;;;1.03;68.79;100041.59;7399272;19;20015;-62
2024/01/17 02:40:00;;;;;;;14.90;7.68;;;;;;;0.98;68.60;100035.72;7399068;19;20068;-62
2024/01/17 02:42:38;;;;;;;17.40;7.50;;;;;;;1.02;68.79;100041.66;7398584;19;20014;-62
2024/01/17 02:45:09;;;;;;;14.65;7.68;;;;;;;1.04;68.82;100034.63;7398082;19;20025;-63
2024/01/17 02:47:42;;;;;;;13.90;7.75;;;;;;;1.09;68.49;100028.25;7397780;19;20038;-63
2024/01/17 02:50:14;;;;;;;15.13;8.23;;;;;;;1.00;68.76;100033.91;7398128;19;20014;-63
2024/01/17 02:52:45;;;;;;;17.52;7.75;;;;;;;0.89;68.98;100025.75;7395877;19;20134;-63
2024/01/17 02:55:16;;;;;;;17.27;8.07;;;;;;;1.02;69.01;100032.06;7396328;19;20010;-63
2024/01/17 02:57:46;;;;;;;17.08;8.02;;;;;;;1.13;68.58;100021.16;7397961;19;20010;-63
2024/01/17 03:00:17;;;;;;;14.25;8.00;;;;;;;0.98;68.84;100001.84;7396750;19;20018;-64
2024/01/17 03:02:46;;;;;;;16.02;8.10;;;;;;;0.92;68.96;99983.91;7397156;19;20351;-63
2024/01/17 03:05:17;;;;;;;17.55;7.75;;;;;;;1.02;68.61;99966.91;7396307;19;20095;-63
2024/01/17 03:07:46;;;;;;;16.83;8.40;;;;;;;0.92;69.10;99976.09;7395047;19;20092;-63
2024/01/17 03:10:16;;;;;;;13.32;7.78;;;;;;;0.86;69.10;99974.59;7396796;19;20359;-63
2024/01/17 03:12:47;;;;;;;15.25;7.80;;;;;;;0.98;68.94;99970.56;7396730;19;20022;-63
2024/01/17 03:15:16;;;;;;;13.68;7.60;;;;;;;1.12;68.40;99969.94;7395580;19;20019;-63
2024/01/17 03:17:46;;;;;;;15.68;8.52;;;;;;;0.98;69.10;99965.34;7395136;19;20022;-63
2024/01/17 03:20:17;;;;;;;16.20;8.13;;;;;;;0.96;69.31;99964.59;7396331;19;20384;-64
2024/01/17 03:22:45;;;;;;;15.82;7.85;;;;;;;1.04;69.16;99961.63;7396780;19;20015;-64
2024/01/17 03:25:16;;;;;;;16.17;7.75;;;;;;;1.10;68.79;99956.94;7395402;19;20011;-64
2024/01/17 03:27:45;;;;;;;15.55;7.65;;;;;;;0.92;69.58;99950.84;7394001;19;20027;-64
2024/01/17 03:30:15;;;;;;;15.95;8.38;;;;;;;0.96;69.19;99938.53;7396845;19;20014;-66
2024/01/17 03:32:44;;;;;;;18.35;8.02;;;;;;;0.95;69.23;99952.47;7394478;19;20011;-65
2024/01/17 03:35:15;;;;;;;14.10;7.78;;;;;;;1.03;69.34;99949.50;7395468;19;20385;-65
2024/01/17 03:37:44;;;;;;;13.45;7.45;;;;;;;1.07;69.22;99936.25;7394005;19;20115;-65
2024/01/17 03:40:14;;;;;;;16.45;8.48;;;;;;;1.13;68.87;99928.13;7396439;19;20491;-62
2024/01/17 03:42:45;;;;;;;15.88;8.23;;;;;;;1.18;68.79;99928.78;7396091;19;20027;-62
2024/01/17 03:45:15;;;;;;;15.85;7.93;;;;;;;1.18;68.68;99918.34;7394775;19;20014;-61
2024/01/17 03:47:45;;;;;;;17.85;8.05;;;;;;;1.22;68.60;99916.41;7393679;19;20038;-62
2024/01/17 03:50:15;;;;;;;14.50;7.85;;;;;;;1.03;69.12;99918.22;7396209;19;20074;-62
2024/01/17 03:52:44;;;;;;;15.70;7.60;;;;;;;1.02;69.58;99912.16;7395747;19;20015;-63
2024/01/17 03:55:13;;;;;;;14.95;7.43;;;;;;;1.06;69.54;99902.41;7393208;19;20022;-62
2024/01/17 03:57:43;;;;;;;15.10;7.28;;;;;;;0.96;69.46;99883.78;7395216;19;20050;-62
2024/01/17 04:00:14;;;;;;;16.15;7.85;;;;;;;1.08;69.48;99891.00;7395428;19;20015;-62
2024/01/17 04:02:45;;;;;;;15.02;7.50;;;;;;;1.17;69.26;99885.34;7395980;19;20011;-62
2024/01/17 04:05:20;;;;;;;12.43;7.30;;;;;;;1.29;68.68;99886.50;7394450;19;20019;-62
2024/01/17 04:07:52;;;;;;;15.15;7.57;;;;;;;1.11;69.13;99872.63;7393377;19;20037;-61
2024/01/17 04:10:22;;;;;;;13.88;7.57;;;;;;;1.15;69.27;99865.50;7394576;19;20078;-62
2024/01/17 04:12:52;;;;;;;12.05;7.05;;;;;;;1.25;68.79;99860.66;7395567;19;20042;-62
2024/01/17 04:15:23;;;;;;;12.35;7.30;;;;;;;1.20;68.72;99874.75;7394122;19;20048;-62
2024/01/17 04:17:53;;;;;;;13.90;6.90;;;;;;;0.96;69.39;99855.13;7395370;19;20082;-62
2024/01/17 04:20:23;;;;;;;14.32;7.78;;;;;;;1.07;69.38;99867.59;7392144;19;20014;-62
2024/01/17 04:22:54;;;;;;;12.82;7.28;;;;;;;1.09;69.37;99871.00;7394608;19;20022;-62
2024/01/17 04:25:24;;;;;;;14.32;7.53;;;;;;;1.00;69.26;99856.66;7393837;19;20417;-62
2024/01/17 04:27:55;;;;;;;17.45;7.60;;;;;;;0.96;69.52;99848.16;7392710;19;20011;-62
2024/01/17 04:30:25;;;;;;;16.30;7.75;;;;;;;1.04;68.77;99841.72;7393220;19;20027;-62
2024/01/17 04:32:55;;;;;;;13.30;7.35;;;;;;;1.10;69.54;99851.81;7394347;19;20015;-62
2024/01/17 04:35:26;;;;;;;12.68;7.32;;;;;;;1.16;69.14;99848.94;7392539;19;20380;-63
2024/01/17 04:37:57;;;;;;;13.88;7.43;;;;;;;1.00;69.09;99833.19;7392585;19;20022;-63
2024/01/17 04:40:30;;;;;;;14.05;7.15;;;;;;;1.02;69.23;99831.34;7394655;19;20011;-63
2024/01/17 04:43:00;;;;;;;14.80;7.18;;;;;;;1.11;68.62;99828.31;7394174;19;20027;-64
2024/01/17 04:45:37;;;;;;;12.27;6.45;;;;;;;1.20;68.67;99819.16;7392474;19;20028;-64
2024/01/17 04:48:09;;;;;;;14.32;7.07;;;;;;;1.05;68.56;99812.97;7390682;19;20018;-65
2024/01/17 04:50:40;;;;;;;15.88;6.90;;;;;;;0.95;69.20;99804.75;7394133;19;20106;-65
2024/01/17 04:53:11;;;;;;;14.57;7.25;;;;;;;1.11;69.24;99804.84;7393608;19;20022;-65
2024/01/17 04:55:41;;;;;;;12.73;6.70;;;;;;;1.24;68.24;99806.81;7392718;19;20039;-65
2024/01/17 04:58:11;;;;;;;14.82;7.05;;;;;;;1.06;68.61;99809.41;7393400;19;20042;-62
2024/01/17 05:00:45;;;;;;;14.80;6.93;;;;;;;1.04;69.02;99800.84;7392863;19;20043;-61
2024/01/17 05:03:16;;;;;;;17.45;7.70;;;;;;;1.11;68.82;99797.03;7391852;19;20039;-64
2024/01/17 05:05:46;;;;;;;12.68;6.45;;;;;;;1.09;69.05;99787.56;7389963;19;20022;-63
2024/01/17 05:08:17;;;;;;;13.35;6.50;;;;;;;1.26;68.47;99795.41;7390105;19;20493;-63
2024/01/17 05:10:47;;;;;;;13.32;6.60;;;;;;;1.16;68.44;99792.41;7393162;19;20081;-63
2024/01/17 05:13:18;;;;;;;12.13;6.30;;;;;;;1.20;68.45;99783.50;7393493;19;20014;-62
2024/01/17 05:15:49;;;;;;;14.93;7.05;;;;;;;1.28;68.16;99780.50;7391567;19;20022;-60
2024/01/17 05:18:19;;;;;;;12.40;6.15;;;;;;;1.31;68.03;99771.69;7392996;19;20074;-61
2024/01/17 05:20:50;;;;;;;15.93;6.72;;;;;;;1.23;67.64;99777.31;7391463;19;20015;-60
2024/01/17 05:23:20;;;;;;;11.48;6.05;;;;;;;0.84;68.53;99767.09;7392289;19;20019;-64
2024/01/17 05:25:50;;;;;;;16.98;7.18;;;;;;;0.92;68.28;99757.16;7391258;19;20074;-64
2024/01/17 05:28:21;;;;;;;13.63;6.47;;;;;;;0.91;68.86;99758.06;7390714;19;20374;-62
2024/01/17 05:30:51;;;;;;;13.98;6.45;;;;;;;1.06;68.07;99761.66;7391149;19;20014;-61
2024/01/17 05:33:21;;;;;;;13.10;6.20;;;;;;;0.94;68.38;99737.06;7392127;19;20085;-61
2024/01/17 05:35:52;;;;;;;11.75;6.53;;;;;;;1.11;67.62;99741.44;7389532;19;20033;-61
2024/01/17 05:38:22;;;;;;;14.52;6.80;;;;;;;1.07;68.00;99729.44;7392325;19;20018;-61
2024/01/17 05:40:56;;;;;;;14.38;6.00;;;;;;;1.01;67.82;99725.41;7390706;19;20382;-61
2024/01/17 05:43:27;;;;;;;15.82;6.40;;;;;;;1.01;68.24;99716.75;7392620;19;20022;-58
2024/01/17 05:45:58;;;;;;;13.98;6.28;;;;;;;1.00;68.00;99704.66;7390172;19;20023;-59
2024/01/17 05:48:33;;;;;;;13.48;6.18;;;;;;;0.97;68.29;99703.03;7390507;19;20082;-57
2024/01/17 05:51:05;;;;;;;13.93;6.45;;;;;;;1.10;67.98;99701.47;7391225;19;20026;-58
2024/01/17 05:53:38;;;;;;;14.10;6.57;;;;;;;1.05;68.18;99694.81;7391886;19;20022;-59
2024/01/17 05:56:09;;;;;;;13.43;5.75;;;;;;;0.90;67.77;99688.63;7389941;19;20019;-64
2024/01/17 05:58:42;;;;;;;15.53;5.90;;;;;;;0.77;68.85;99700.59;7394190;19;20247;-63
2024/01/17 06:01:13;;;;;;;14.23;6.65;;;;;;;0.86;68.51;99674.91;7391402;19;20018;-64
2024/01/17 06:03:43;;;;;;;14.07;6.55;;;;;;;0.96;67.67;99688.31;7391992;19;20475;-62
2024/01/17 06:06:14;;;;;;;12.25;6.22;;;;;;;0.85;68.67;99688.84;7389559;19;20027;-62
2024/01/17 06:08:45;;;;;;;14.68;6.50;;;;;;;0.86;68.56;99698.34;7401899;19;19914;-61
2024/01/17 06:11:15;;;;;;;15.13;6.35;;;;;;;0.92;68.31;99684.19;7390741;19;20478;-62
2024/01/17 06:13:46;;;;;;;14.48;6.63;;;;;;;1.04;67.90;99683.53;7391614;19;20043;-62
2024/01/17 06:16:16;;;;;;;12.68;6.40;;;;;;;0.96;67.81;99672.69;7388524;19;20032;-62
2024/01/17 06:18:46;;;;;;;13.95;6.53;;;;;;;0.92;68.05;99674.59;7390560;19;20370;-62
2024/01/17 06:21:17;;;;;;;13.88;6.47;;;;;;;0.89;67.65;99666.09;7391206;19;20031;-62
2024/01/17 06:23:47;;;;;;;15.25;6.35;;;;;;;0.98;67.74;99658.63;7390873;19;20463;-61
2024/01/17 06:26:18;;;;;;;11.85;6.10;;;;;;;0.95;67.58;99660.53;7388048;19;20810;-60
2024/01/17 06:28:49;;;;;;;12.68;5.68;;;;;;;0.96;67.75;99647.47;7390752;19;20022;-60
2024/01/17 06:31:24;;;;;;;12.55;6.25;;;;;;;1.10;67.39;99646.72;7391408;19;20031;-61
2024/01/17 06:33:54;;;;;;;14.38;6.38;;;;;;;1.07;67.64;99643.44;7391111;19;20018;-62
2024/01/17 06:36:25;;;;;;;14.20;6.57;;;;;;;0.78;67.41;99642.34;7388503;19;20022;-61
2024/01/17 06:38:55;;;;;;;11.40;6.20;;;;;;;0.90;67.97;99644.31;7390880;19;20412;-60
2024/01/17 06:41:26;;;;;;;12.57;6.35;;;;;;;0.84;67.61;99649.84;7389422;19;20029;-62
2024/01/17 06:43:56;;;;;;;12.13;5.95;;;;;;;0.97;67.49;99638.72;7396858;19;20030;-60
2024/01/17 06:46:27;;;;;;;14.73;6.28;;;;;;;1.12;67.15;99637.06;7395369;19;20019;-61
2024/01/17 06:48:58;;;;;;;11.38;5.82;;;;;;;1.08;67.13;99638.16;7397639;19;20389;-60
2024/01/17 06:51:33;;;;;;;12.98;6.25;;;;;;;1.07;66.93;99638.22;7393850;19;20046;-60
2024/01/17 06:54:04;;;;;;;13.27;6.32;;;;;;;1.00;67.01;99644.69;7397612;19;20541;-59
2024/01/17 06:56:37;;;;;;;15.93;6.22;;;;;;;0.95;67.30;99637.97;7395243;19;20026;-59
2024/01/17 06:59:08;;;;;;;12.05;6.03;;;;;;;1.02;67.21;99641.06;7396754;19;20014;-60
2024/01/17 07:01:40;;;;;;;15.05;6.45;;;;;;;1.05;67.08;99630.47;7397279;19;20027;-60
2024/01/17 07:04:11;;;;;;;13.40;6.57;;;;;;;1.08;66.87;99624.28;7395922;19;20018;-59
2024/01/17 07:06:42;;;;;;;13.10;6.45;;;;;;;0.94;67.19;99635.41;7393378;19;20018;-60
2024/01/17 07:09:12;;;;;;;13.45;6.07;;;;;;;0.88;67.45;99626.16;7397063;19;20018;-60
2024/01/17 07:11:43;;;;;;;13.45;6.75;;;;;;;1.05;67.16;99614.84;7397251;19;20031;-60
2024/01/17 07:14:13;;;;;;;12.80;6.40;;;;;;;1.04;66.79;99622.75;7397058;19;20010;-60
2024/01/17 07:16:44;;;;;;;13.50;6.60;;;;;;;0.83;67.27;99627.31;7395921;19;20042;-58
2024/01/17 07:19:14;;;;;;;13.63;6.10;;;;;;;0.90;67.32;99619.09;7396715;19;20196;-58
2024/01/17 07:21:45;;;;;;;12.30;6.40;;;;;;;0.71;67.79;99610.56;7397559;19;20022;-58
2024/01/17 07:24:15;;;;;;;11.60;6.07;;;;;;;0.73;67.96;99612.16;7396948;19;20022;-56
2024/01/17 07:26:46;;;;;;;13.45;5.90;;;;;;;0.78;67.54;99609.31;7393909;19;20018;-55
2024/01/17 07:29:16;;;;;;;11.82;5.95;;;;;;;0.86;67.11;99601.94;7396826;19;20046;-59
2024/01/17 07:31:47;;;;;;;11.60;6.00;;;;;;;0.81;66.82;99587.47;7395776;19;20018;-58
2024/01/17 07:34:18;;;;;;;14.32;6.22;;;;;;;0.77;67.24;99588.56;7396782;19;20094;-57
2024/01/17 07:36:51;;;;;;;12.13;6.25;;;;;;;0.94;67.20;99586.75;7393824;19;20018;-58
2024/01/17 07:39:22;;;;;;;13.32;6.60;;;;;;;1.01;66.98;99582.03;7395643;19;20086;-59
2024/01/17 07:41:53;;;;;;;12.45;6.45;;;;;;;0.83;66.85;99572.59;7395894;19;20364;-58
2024/01/17 07:44:29;;;;;;;13.27;6.22;;;;;;;0.75;67.01;99586.03;7395468;19;20755;-59
2024/01/17 07:46:59;;;;;;;12.57;5.97;;;;;;;0.61;67.83;99584.16;7393237;19;20015;-58
2024/01/17 07:49:37;;;;;;;13.55;6.22;;;;;;;0.84;67.64;99574.25;7395632;19;20520;-58
2024/01/17 07:52:07;;;;;;;12.18;6.20;;;;;;;0.88;66.84;99575.81;7395294;19;20742;-58
2024/01/17 07:54:38;;;;;;;12.23;6.07;;;;;;;0.83;67.52;99575.19;7394913;19;20022;-57
2024/01/17 07:57:11;;;;;;;11.20;5.90;;;;;;;0.92;67.20;99577.34;7392563;19;20373;-58
2024/01/17 07:59:41;;;;;;;12.07;5.95;;;;;;;0.55;67.25;99542.78;7395207;19;20018;-59
2024/01/17 08:02:12;;;;;;;12.68;5.78;;;;;;;0.77;67.09;99565.13;7395787;19;20043;-58
2024/01/17 08:04:43;;;;;;;12.98;5.80;;;;;;;0.80;67.04;99562.31;7395728;19;20405;-57
2024/01/17 08:07:13;;;;;;;11.88;5.85;;;;;;;0.97;66.70;99552.69;7391293;19;20081;-58
2024/01/17 08:09:44;;;;;;;13.07;5.90;;;;;;;1.02;66.35;99554.22;7395022;19;20055;-59
2024/01/17 08:12:14;;;;;;;11.98;5.28;;;;;;;1.07;66.15;99560.00;7394618;19;20494;-58
2024/01/17 08:14:46;;;;;;;12.00;5.45;;;;;;;1.06;65.94;99553.97;7395110;19;20023;-59
2024/01/17 08:17:16;;;;;;;12.57;5.70;;;;;;;1.00;66.22;99550.88;7392184;19;20021;-59
2024/01/17 08:19:47;;;;;;;12.60;5.82;;;;;;;1.17;66.08;99559.44;7394565;19;20023;-59
2024/01/17 08:22:17;;;;;;;11.73;5.40;;;;;;;1.18;65.51;99558.53;7395539;19;20057;-59
2024/01/17 08:24:47;;;;;;;12.02;5.40;;;;;;;0.95;66.29;99553.69;7395541;19;20032;-59
2024/01/17 08:27:18;;;;;;;13.35;5.38;;;;;;;1.07;65.99;99555.66;7391500;19;20034;-57
2024/01/17 08:29:48;;;;;;;12.07;5.70;;;;;;;1.14;65.52;99556.16;7394440;19;20014;-58
2024/01/17 08:32:18;;;;;;;13.90;5.80;;;;;;;1.06;65.45;99547.91;7392757;19;20010;-58
2024/01/17 08:34:49;;;;;;;12.05;5.50;;;;;;;1.22;65.51;99546.13;7393869;19;20630;-59
2024/01/17 08:37:19;;;;;;;12.25;5.70;;;;;;;1.23;65.13;99540.03;7391750;19;20023;-59
2024/01/17 08:39:50;;;;;;;18.17;6.03;;;;;;;1.06;64.87;99511.41;7394069;19;20027;-59
2024/01/17 08:42:22;;;;;;;12.52;5.10;;;;;;;1.17;65.44;99530.75;7392103;19;20354;-60
2024/01/17 08:44:53;;;;;;;12.48;5.57;;;;;;;1.24;65.09;99526.06;7393956;19;20018;-60
2024/01/17 08:47:23;;;;;;;12.80;5.32;;;;;;;1.08;64.79;99510.41;7391074;19;20041;-58
2024/01/17 08:49:56;;;;;;;13.13;5.47;;;;;;;1.24;65.05;99520.00;7393758;19;20018;-59
2024/01/17 08:52:28;;;;;;;12.60;5.78;;;;;;;1.37;65.08;99513.16;7395297;19;20361;-59
2024/01/17 08:55:01;;;;;;;13.48;5.60;;;;;;;1.30;64.68;99494.44;7392889;19;20014;-59
2024/01/17 08:57:39;;;;;;;11.60;5.60;;;;;;;1.19;65.03;99499.41;7393198;19;20037;-59
2024/01/17 09:00:13;;;;;;;10.85;5.45;;;;;;;1.01;65.39;99493.44;7393381;19;20449;-60
2024/01/17 09:02:43;;;;;;;10.85;5.15;;;;;;;1.11;65.15;99478.97;7393163;19;20082;-59
2024/01/17 09:05:14;;;;;;;15.13;5.50;;;;;;;1.27;64.89;99481.56;7389356;19;20052;-59
2024/01/17 09:07:43;;;;;;;12.23;5.07;;;;;;;1.27;64.76;99481.56;7392770;19;20023;-60
2024/01/17 09:10:16;;;;;;;12.15;5.50;;;;;;;1.24;64.62;99473.06;7392797;19;20077;-59
2024/01/17 09:12:46;;;;;;;11.63;5.53;;;;;;;1.33;64.96;99475.16;7392581;19;20525;-60
2024/01/17 09:15:16;;;;;;;10.85;5.50;;;;;;;1.39;64.24;99474.81;7391641;19;20040;-58
2024/01/17 09:17:45;;;;;;;12.05;5.40;;;;;;;1.33;64.47;99446.47;7392563;19;20026;-58
2024/01/17 09:20:16;;;;;;;12.40;5.50;;;;;;;1.51;64.03;99466.28;7392444;19;20019;-58
2024/01/17 09:22:45;;;;;;;11.05;5.20;;;;;;;1.61;63.67;99459.63;7392721;19;20021;-58
2024/01/17 09:25:17;;;;;;;12.90;5.15;;;;;;;1.59;63.71;99463.25;7389911;19;20014;-59
2024/01/17 09:27:46;;;;;;;13.75;5.78;;;;;;;1.69;63.53;99456.56;7390213;19;20018;-59
2024/01/17 09:30:17;;;;;;;10.60;5.10;;;;;;;1.70;63.61;99453.03;7392910;19;20015;-58
2024/01/17 09:32:47;;;;;;;10.20;5.22;;;;;;;1.66;63.47;99444.53;7392088;19;20392;-61
2024/01/17 09:35:18;;;;;;;13.13;5.57;;;;;;;1.60;63.10;99452.72;7391450;19;20019;-60
2024/01/17 09:37:46;;;;;;;11.45;5.43;;;;;;;1.46;63.66;99453.50;7391043;19;20046;-60
2024/01/17 09:40:17;;;;;;;12.00;5.28;;;;;;;1.55;63.60;99461.72;7394945;19;20094;-59
2024/01/17 09:42:46;;;;;;;13.10;5.47;;;;;;;1.72;63.35;99456.41;7390658;19;20434;-59
2024/01/17 09:45:21;;;;;;;10.95;5.38;;;;;;;1.86;63.01;99451.19;7388874;19;20028;-60
2024/01/17 09:47:55;;;;;;;10.45;5.63;;;;;;;1.81;62.54;99450.63;7392717;19;20019;-61
2024/01/17 09:50:27;;;;;;;13.10;6.20;;;;;;;1.80;62.24;99443.75;7392633;19;20033;-61
2024/01/17 09:52:59;;;;;;;11.50;5.65;;;;;;;1.68;62.89;99437.47;7393462;19;20033;-61
2024/01/17 09:55:38;;;;;;;13.55;5.18;;;;;;;1.84;62.88;99431.34;7391339;19;20023;-59
2024/01/17 09:58:12;;;;;;;10.75;5.38;;;;;;;1.88;62.35;99432.84;7392006;19;20042;-60
2024/01/17 10:00:43;;;;;;;12.30;5.97;;;;;;;1.70;61.76;99425.16;7391059;19;20110;-60
2024/01/17 10:03:20;;;;;;;13.18;5.97;;;;;;;1.68;62.54;99428.81;7391989;19;20486;-60
2024/01/17 10:05:54;;;;;;;11.82;5.72;;;;;;;1.74;62.15;99423.22;7388925;19;20022;-61
2024/01/17 10:08:26;;;;;;;11.60;5.10;;;;;;;1.82;61.77;99422.75;7390354;19;20018;-61
2024/01/17 10:10:56;;;;;;;11.65;5.32;;;;;;;1.82;61.70;99407.09;7391186;19;20021;-60
2024/01/17 10:13:27;;;;;;;13.88;5.53;;;;;;;1.88;61.34;99404.13;7390548;19;20060;-59
2024/01/17 10:16:03;;;;;;;10.85;5.30;;;;;;;2.04;61.06;99397.06;7389834;19;20018;-60
2024/01/17 10:18:40;;;;;;;12.30;5.85;;;;;;;1.81;61.58;99397.59;7397652;19;20014;-61
2024/01/17 10:21:11;;;;;;;11.32;5.65;;;;;;;1.73;61.70;99394.59;7397083;19;20019;-61
2024/01/17 10:23:41;;;;;;;11.80;5.70;;;;;;;1.66;61.85;99394.13;7403363;19;20431;-60
2024/01/17 10:26:12;;;;;;;10.88;5.35;;;;;;;1.80;61.63;99403.75;7395856;19;20046;-60
2024/01/17 10:28:45;;;;;;;13.25;5.68;;;;;;;1.77;61.61;99396.09;7399291;19;20019;-60
2024/01/17 10:31:20;;;;;;;10.15;5.63;;;;;;;1.82;61.27;99387.06;7398283;19;20491;-59
2024/01/17 10:33:51;;;;;;;13.05;5.85;;;;;;;1.97;61.17;99385.28;7398781;19;20018;-61
2024/01/17 10:36:22;;;;;;;11.45;5.90;;;;;;;2.03;60.55;99384.09;7397175;19;20030;-60
2024/01/17 10:39:01;;;;;;;13.65;5.85;;;;;;;2.06;60.70;99378.66;7400755;19;20025;-62
2024/01/17 10:41:59;;;;;;;10.77;5.72;;;;;;;2.08;60.22;99367.22;7400647;19;20026;-60
2024/01/17 10:44:36;;;;;;;13.27;5.65;;;;;;;2.05;61.02;99367.38;7398301;19;20015;-59
2024/01/17 10:47:07;;;;;;;12.32;5.63;;;;;;;2.13;60.88;99362.53;7393203;19;20486;-60
2024/01/17 10:49:44;;;;;;;13.95;6.38;;;;;;;2.05;60.65;99363.94;7396568;19;20018;-59
2024/01/17 10:52:17;;;;;;;16.70;6.07;;;;;;;2.18;60.62;99357.06;7398758;19;20015;-61
2024/01/17 10:54:56;;;;;;;13.05;5.93;;;;;;;2.23;60.04;99357.59;7397240;19;20509;-61
2024/01/17 10:57:28;;;;;;;12.30;5.75;;;;;;;2.08;61.05;99356.78;7396561;19;20014;-60
2024/01/17 11:00:03;;;;;;;10.43;5.38;;;;;;;2.27;60.75;99364.31;7397444;19;20033;-61
2024/01/17 11:02:40;;;;;;;15.13;6.18;;;;;;;2.29;60.66;99356.38;7397672;19;20026;-60
2024/01/17 11:05:15;;;;;;;14.15;5.90;;;;;;;2.12;60.37;99347.81;7396387;19;20035;-61
2024/01/17 11:07:47;;;;;;;12.95;6.05;;;;;;;2.21;60.98;99351.63;7395302;19;20018;-60
2024/01/17 11:10:19;;;;;;;13.32;5.55;;;;;;;2.30;60.36;99355.44;7393742;19;20086;-60
2024/01/17 11:12:52;;;;;;;12.07;5.88;;;;;;;2.30;59.73;99345.84;7396534;19;20428;-60
2024/01/17 11:15:26;;;;;;;12.43;5.82;;;;;;;2.30;60.13;99331.94;7393692;19;20019;-61
2024/01/17 11:18:00;;;;;;;13.40;6.70;;;;;;;2.42;59.27;99329.41;7397533;19;20018;-61
2024/01/17 11:20:40;;;;;;;13.55;6.10;;;;;;;2.26;59.71;99333.06;7396308;19;20018;-61
2024/01/17 11:23:25;;;;;;;14.95;6.55;;;;;;;2.28;59.28;99320.75;7399511;19;20021;-60
2024/01/17 11:26:40;;;;;;;14.70;6.40;;;;;;;2.43;58.45;99322.38;7393000;19;20026;-60
2024/01/17 11:29:43;;;;;;;10.07;5.82;;;;;;;2.27;58.88;99319.06;7389001;19;20021;-61
2024/01/17 11:32:29;;;;;;;14.13;6.80;;;;;;;2.35;59.48;99322.88;7392577;19;20093;-61
2024/01/17 11:34:59;;;;;;;14.93;6.85;;;;;;;2.34;59.28;99313.38;7395988;19;20022;-61
2024/01/17 11:37:39;;;;;;;16.65;6.75;;;;;;;2.20;59.56;99308.16;7396549;19;20033;-61
2024/01/17 11:40:09;;;;;;;13.68;6.55;;;;;;;2.29;59.77;99312.84;7395706;19;20074;-61
2024/01/17 11:42:42;;;;;;;13.83;6.33;;;;;;;2.34;59.22;99304.69;7395524;19;20018;-61
2024/01/17 11:45:13;;;;;;;14.07;6.20;;;;;;;2.46;59.24;99303.91;7395590;19;20018;-61
2024/01/17 11:47:52;;;;;;;14.40;6.30;;;;;;;2.58;59.28;99315.34;7393706;19;20023;-61
2024/01/17 11:50:23;;;;;;;14.18;6.25;;;;;;;2.56;59.03;99301.56;7393544;19;20052;-61
2024/01/17 11:52:55;;;;;;;14.30;6.47;;;;;;;2.57;59.35;99290.16;7397507;19;20014;-60